sensor_id;sensor_type;location;lat;lon;timestamp;P1;durP1;ratioP1;P2;durP2;ratioP2
19780;SDS011;10050;55.492;13.506;2022-12-10T00:01:31;8.60;;;6.07;;
19780;SDS011;10050;55.492;13.506;2022-12-10T00:03:58;7.20;;;5.23;;
19780;SDS011;10050;55.492;13.506;2022-12-10T00:06:26;9.47;;;6.23;;
19780;SDS011;10050;55.492;13.506;2022-12-10T00:08:53;8.87;;;6.17;;
19780;SDS011;10050;55.492;13.506;2022-12-10T00:11:20;9.03;;;6.27;;
19780;SDS011;10050;55.492;13.506;2022-12-10T00:13:47;9.70;;;6.50;;
19780;SDS011;10050;55.492;13.506;2022-12-10T00:16:14;8.73;;;6.13;;
19780;SDS011;10050;55.492;13.506;2022-12-10T00:18:42;7.17;;;5.10;;
19780;SDS011;10050;55.492;13.506;2022-12-10T00:21:09;8.33;;;6.40;;
19780;SDS011;10050;55.492;13.506;2022-12-10T00:23:37;8.50;;;6.27;;
19780;SDS011;10050;55.492;13.506;2022-12-10T00:26:08;8.53;;;6.63;;
19780;SDS011;10050;55.492;13.506;2022-12-10T00:28:35;8.63;;;6.03;;
19780;SDS011;10050;55.492;13.506;2022-12-10T00:31:05;7.47;;;5.43;;
19780;SDS011;10050;55.492;13.506;2022-12-10T00:33:32;9.47;;;6.13;;
19780;SDS011;10050;55.492;13.506;2022-12-10T00:36:12;9.77;;;5.70;;
19780;SDS011;10050;55.492;13.506;2022-12-10T00:38:40;7.93;;;5.83;;
19780;SDS011;10050;55.492;13.506;2022-12-10T00:41:07;9.17;;;7.23;;
19780;SDS011;10050;55.492;13.506;2022-12-10T00:43:33;9.20;;;6.13;;
19780;SDS011;10050;55.492;13.506;2022-12-10T00:45:59;9.53;;;6.53;;
19780;SDS011;10050;55.492;13.506;2022-12-10T00:48:25;8.73;;;6.10;;
19780;SDS011;10050;55.492;13.506;2022-12-10T00:53:28;8.83;;;6.30;;
19780;SDS011;10050;55.492;13.506;2022-12-10T00:55:55;8.83;;;6.13;;
19780;SDS011;10050;55.492;13.506;2022-12-10T00:58:22;8.37;;;6.43;;
19780;SDS011;10050;55.492;13.506;2022-12-10T01:00:50;8.40;;;6.40;;
19780;SDS011;10050;55.492;13.506;2022-12-10T01:03:16;8.03;;;5.87;;
19780;SDS011;10050;55.492;13.506;2022-12-10T01:05:42;8.73;;;5.70;;
19780;SDS011;10050;55.492;13.506;2022-12-10T01:08:08;7.77;;;5.87;;
19780;SDS011;10050;55.492;13.506;2022-12-10T01:10:33;7.20;;;5.63;;
19780;SDS011;10050;55.492;13.506;2022-12-10T01:12:59;7.13;;;5.50;;
19780;SDS011;10050;55.492;13.506;2022-12-10T01:15:24;6.60;;;5.13;;
19780;SDS011;10050;55.492;13.506;2022-12-10T01:17:50;7.67;;;4.90;;
19780;SDS011;10050;55.492;13.506;2022-12-10T01:20:16;8.40;;;5.57;;
19780;SDS011;10050;55.492;13.506;2022-12-10T01:22:41;6.63;;;4.90;;
19780;SDS011;10050;55.492;13.506;2022-12-10T01:25:07;6.23;;;4.80;;
19780;SDS011;10050;55.492;13.506;2022-12-10T01:27:33;5.63;;;4.80;;
19780;SDS011;10050;55.492;13.506;2022-12-10T01:29:59;7.67;;;5.63;;
19780;SDS011;10050;55.492;13.506;2022-12-10T01:32:24;6.00;;;4.80;;
19780;SDS011;10050;55.492;13.506;2022-12-10T01:34:50;6.53;;;5.07;;
19780;SDS011;10050;55.492;13.506;2022-12-10T01:37:16;6.13;;;4.60;;
19780;SDS011;10050;55.492;13.506;2022-12-10T01:39:42;6.73;;;5.10;;
19780;SDS011;10050;55.492;13.506;2022-12-10T01:42:12;6.90;;;4.87;;
19780;SDS011;10050;55.492;13.506;2022-12-10T01:47:07;6.13;;;4.77;;
19780;SDS011;10050;55.492;13.506;2022-12-10T01:49:35;7.70;;;5.37;;
19780;SDS011;10050;55.492;13.506;2022-12-10T01:52:02;7.60;;;4.87;;
19780;SDS011;10050;55.492;13.506;2022-12-10T01:54:31;6.33;;;5.00;;
19780;SDS011;10050;55.492;13.506;2022-12-10T01:57:00;6.63;;;4.50;;
19780;SDS011;10050;55.492;13.506;2022-12-10T01:59:50;7.50;;;5.20;;
19780;SDS011;10050;55.492;13.506;2022-12-10T02:12:54;6.50;;;5.10;;
19780;SDS011;10050;55.492;13.506;2022-12-10T02:15:30;7.27;;;5.23;;
19780;SDS011;10050;55.492;13.506;2022-12-10T02:20:34;6.93;;;5.57;;
19780;SDS011;10050;55.492;13.506;2022-12-10T02:23:04;7.07;;;5.17;;
19780;SDS011;10050;55.492;13.506;2022-12-10T02:25:56;7.27;;;5.30;;
19780;SDS011;10050;55.492;13.506;2022-12-10T02:31:34;7.87;;;5.87;;
19780;SDS011;10050;55.492;13.506;2022-12-10T02:34:02;7.77;;;5.37;;
19780;SDS011;10050;55.492;13.506;2022-12-10T02:36:32;8.50;;;5.53;;
19780;SDS011;10050;55.492;13.506;2022-12-10T02:39:00;7.10;;;5.33;;
19780;SDS011;10050;55.492;13.506;2022-12-10T02:41:32;8.83;;;5.60;;
19780;SDS011;10050;55.492;13.506;2022-12-10T02:44:00;8.63;;;5.97;;
19780;SDS011;10050;55.492;13.506;2022-12-10T02:46:29;7.73;;;5.97;;
19780;SDS011;10050;55.492;13.506;2022-12-10T02:48:57;7.93;;;5.47;;
19780;SDS011;10050;55.492;13.506;2022-12-10T02:51:24;7.77;;;5.23;;
19780;SDS011;10050;55.492;13.506;2022-12-10T02:54:00;6.23;;;4.90;;
19780;SDS011;10050;55.492;13.506;2022-12-10T02:56:30;8.70;;;5.50;;
19780;SDS011;10050;55.492;13.506;2022-12-10T02:59:04;7.53;;;5.40;;
19780;SDS011;10050;55.492;13.506;2022-12-10T03:04:35;9.47;;;6.40;;
19780;SDS011;10050;55.492;13.506;2022-12-10T03:07:14;9.10;;;5.97;;
19780;SDS011;10050;55.492;13.506;2022-12-10T03:09:48;9.63;;;6.40;;
19780;SDS011;10050;55.492;13.506;2022-12-10T03:12:25;8.37;;;6.10;;
19780;SDS011;10050;55.492;13.506;2022-12-10T03:15:09;9.93;;;6.60;;
19780;SDS011;10050;55.492;13.506;2022-12-10T03:17:36;8.73;;;6.00;;
19780;SDS011;10050;55.492;13.506;2022-12-10T03:20:06;8.30;;;6.10;;
19780;SDS011;10050;55.492;13.506;2022-12-10T03:22:34;10.83;;;6.03;;
19780;SDS011;10050;55.492;13.506;2022-12-10T03:25:05;9.73;;;5.93;;
19780;SDS011;10050;55.492;13.506;2022-12-10T03:27:32;11.27;;;7.13;;
19780;SDS011;10050;55.492;13.506;2022-12-10T03:29:59;11.27;;;6.80;;
19780;SDS011;10050;55.492;13.506;2022-12-10T03:32:26;9.40;;;5.87;;
19780;SDS011;10050;55.492;13.506;2022-12-10T03:34:53;8.23;;;5.70;;
19780;SDS011;10050;55.492;13.506;2022-12-10T03:37:22;9.23;;;6.20;;
19780;SDS011;10050;55.492;13.506;2022-12-10T03:39:48;9.10;;;6.47;;
19780;SDS011;10050;55.492;13.506;2022-12-10T03:42:15;7.33;;;5.63;;
19780;SDS011;10050;55.492;13.506;2022-12-10T03:44:41;8.77;;;6.47;;
19780;SDS011;10050;55.492;13.506;2022-12-10T03:47:07;8.70;;;6.03;;
19780;SDS011;10050;55.492;13.506;2022-12-10T03:49:36;8.83;;;6.30;;
19780;SDS011;10050;55.492;13.506;2022-12-10T03:52:02;10.70;;;5.77;;
19780;SDS011;10050;55.492;13.506;2022-12-10T03:54:27;8.83;;;5.83;;
19780;SDS011;10050;55.492;13.506;2022-12-10T03:56:53;8.80;;;5.73;;
19780;SDS011;10050;55.492;13.506;2022-12-10T03:59:19;7.90;;;5.70;;
19780;SDS011;10050;55.492;13.506;2022-12-10T04:01:44;6.63;;;5.07;;
19780;SDS011;10050;55.492;13.506;2022-12-10T04:04:10;8.70;;;5.80;;
19780;SDS011;10050;55.492;13.506;2022-12-10T04:06:39;7.70;;;5.93;;
19780;SDS011;10050;55.492;13.506;2022-12-10T04:09:06;9.03;;;6.10;;
19780;SDS011;10050;55.492;13.506;2022-12-10T04:11:33;10.07;;;5.83;;
19780;SDS011;10050;55.492;13.506;2022-12-10T04:13:59;8.87;;;6.80;;
19780;SDS011;10050;55.492;13.506;2022-12-10T04:16:43;7.97;;;5.53;;
19780;SDS011;10050;55.492;13.506;2022-12-10T04:19:10;8.43;;;5.97;;
19780;SDS011;10050;55.492;13.506;2022-12-10T04:21:38;7.93;;;5.80;;
19780;SDS011;10050;55.492;13.506;2022-12-10T04:24:24;7.73;;;5.57;;
19780;SDS011;10050;55.492;13.506;2022-12-10T04:27:12;7.77;;;5.60;;
19780;SDS011;10050;55.492;13.506;2022-12-10T04:29:55;8.90;;;6.07;;
19780;SDS011;10050;55.492;13.506;2022-12-10T04:32:23;8.37;;;6.10;;
19780;SDS011;10050;55.492;13.506;2022-12-10T04:34:49;8.37;;;5.63;;
19780;SDS011;10050;55.492;13.506;2022-12-10T04:37:15;7.33;;;5.40;;
19780;SDS011;10050;55.492;13.506;2022-12-10T04:39:42;10.63;;;6.50;;
19780;SDS011;10050;55.492;13.506;2022-12-10T04:42:08;8.50;;;5.97;;
19780;SDS011;10050;55.492;13.506;2022-12-10T04:44:34;10.83;;;6.80;;
19780;SDS011;10050;55.492;13.506;2022-12-10T04:47:00;10.60;;;5.80;;
19780;SDS011;10050;55.492;13.506;2022-12-10T04:49:26;10.03;;;6.70;;
19780;SDS011;10050;55.492;13.506;2022-12-10T04:51:51;10.83;;;7.10;;
19780;SDS011;10050;55.492;13.506;2022-12-10T04:54:18;13.10;;;8.10;;
19780;SDS011;10050;55.492;13.506;2022-12-10T04:56:44;14.83;;;8.73;;
19780;SDS011;10050;55.492;13.506;2022-12-10T04:59:10;11.17;;;7.87;;
19780;SDS011;10050;55.492;13.506;2022-12-10T05:01:36;12.17;;;7.13;;
19780;SDS011;10050;55.492;13.506;2022-12-10T05:04:03;9.63;;;6.77;;
19780;SDS011;10050;55.492;13.506;2022-12-10T05:06:30;9.13;;;6.13;;
19780;SDS011;10050;55.492;13.506;2022-12-10T05:08:56;9.83;;;6.63;;
19780;SDS011;10050;55.492;13.506;2022-12-10T05:11:23;8.00;;;6.30;;
19780;SDS011;10050;55.492;13.506;2022-12-10T05:13:50;10.97;;;6.27;;
19780;SDS011;10050;55.492;13.506;2022-12-10T05:16:18;8.73;;;5.53;;
19780;SDS011;10050;55.492;13.506;2022-12-10T05:18:46;6.80;;;5.07;;
19780;SDS011;10050;55.492;13.506;2022-12-10T05:21:13;6.60;;;5.03;;
19780;SDS011;10050;55.492;13.506;2022-12-10T05:23:45;7.53;;;5.37;;
19780;SDS011;10050;55.492;13.506;2022-12-10T05:26:16;8.77;;;6.13;;
19780;SDS011;10050;55.492;13.506;2022-12-10T05:28:47;9.53;;;6.07;;
19780;SDS011;10050;55.492;13.506;2022-12-10T05:31:19;9.73;;;6.33;;
19780;SDS011;10050;55.492;13.506;2022-12-10T05:33:46;7.93;;;5.70;;
19780;SDS011;10050;55.492;13.506;2022-12-10T05:36:13;8.47;;;5.20;;
19780;SDS011;10050;55.492;13.506;2022-12-10T05:38:41;7.67;;;5.60;;
19780;SDS011;10050;55.492;13.506;2022-12-10T05:41:09;9.00;;;5.90;;
19780;SDS011;10050;55.492;13.506;2022-12-10T05:43:37;7.93;;;5.30;;
19780;SDS011;10050;55.492;13.506;2022-12-10T05:46:05;7.90;;;5.33;;
19780;SDS011;10050;55.492;13.506;2022-12-10T05:48:33;7.00;;;5.40;;
19780;SDS011;10050;55.492;13.506;2022-12-10T05:51:03;9.67;;;5.80;;
19780;SDS011;10050;55.492;13.506;2022-12-10T05:53:30;9.27;;;6.13;;
19780;SDS011;10050;55.492;13.506;2022-12-10T05:55:59;8.33;;;6.07;;
19780;SDS011;10050;55.492;13.506;2022-12-10T05:58:26;10.37;;;6.77;;
19780;SDS011;10050;55.492;13.506;2022-12-10T06:00:53;7.97;;;5.70;;
19780;SDS011;10050;55.492;13.506;2022-12-10T06:03:20;8.90;;;6.27;;
19780;SDS011;10050;55.492;13.506;2022-12-10T06:05:45;7.43;;;5.73;;
19780;SDS011;10050;55.492;13.506;2022-12-10T06:08:11;9.03;;;5.53;;
19780;SDS011;10050;55.492;13.506;2022-12-10T06:10:37;9.00;;;5.83;;
19780;SDS011;10050;55.492;13.506;2022-12-10T06:13:03;12.03;;;6.80;;
19780;SDS011;10050;55.492;13.506;2022-12-10T06:15:29;9.70;;;6.63;;
19780;SDS011;10050;55.492;13.506;2022-12-10T06:17:55;11.37;;;6.43;;
19780;SDS011;10050;55.492;13.506;2022-12-10T06:20:22;11.53;;;6.70;;
19780;SDS011;10050;55.492;13.506;2022-12-10T06:22:48;10.80;;;7.17;;
19780;SDS011;10050;55.492;13.506;2022-12-10T06:25:14;9.20;;;6.40;;
19780;SDS011;10050;55.492;13.506;2022-12-10T06:27:39;10.00;;;7.17;;
19780;SDS011;10050;55.492;13.506;2022-12-10T06:30:05;9.70;;;6.50;;
19780;SDS011;10050;55.492;13.506;2022-12-10T06:32:31;10.90;;;7.13;;
19780;SDS011;10050;55.492;13.506;2022-12-10T06:34:57;10.60;;;7.10;;
19780;SDS011;10050;55.492;13.506;2022-12-10T06:37:23;10.93;;;7.53;;
19780;SDS011;10050;55.492;13.506;2022-12-10T06:39:52;11.80;;;7.27;;
19780;SDS011;10050;55.492;13.506;2022-12-10T06:42:18;12.77;;;7.60;;
19780;SDS011;10050;55.492;13.506;2022-12-10T06:44:44;14.07;;;7.50;;
19780;SDS011;10050;55.492;13.506;2022-12-10T06:47:10;13.07;;;7.40;;
19780;SDS011;10050;55.492;13.506;2022-12-10T06:49:36;12.70;;;6.93;;
19780;SDS011;10050;55.492;13.506;2022-12-10T06:52:01;12.57;;;7.90;;
19780;SDS011;10050;55.492;13.506;2022-12-10T06:54:27;10.37;;;7.07;;
19780;SDS011;10050;55.492;13.506;2022-12-10T06:56:53;11.93;;;7.73;;
19780;SDS011;10050;55.492;13.506;2022-12-10T06:59:19;10.97;;;7.23;;
19780;SDS011;10050;55.492;13.506;2022-12-10T07:01:45;10.07;;;7.00;;
19780;SDS011;10050;55.492;13.506;2022-12-10T07:04:11;11.03;;;7.77;;
19780;SDS011;10050;55.492;13.506;2022-12-10T07:06:37;11.77;;;7.93;;
19780;SDS011;10050;55.492;13.506;2022-12-10T07:09:03;10.00;;;7.03;;
19780;SDS011;10050;55.492;13.506;2022-12-10T07:11:29;11.07;;;7.53;;
19780;SDS011;10050;55.492;13.506;2022-12-10T07:13:55;10.70;;;7.60;;
19780;SDS011;10050;55.492;13.506;2022-12-10T07:16:23;9.63;;;6.60;;
19780;SDS011;10050;55.492;13.506;2022-12-10T07:18:51;12.40;;;7.53;;
19780;SDS011;10050;55.492;13.506;2022-12-10T07:21:19;11.27;;;6.80;;
19780;SDS011;10050;55.492;13.506;2022-12-10T07:23:47;12.23;;;7.33;;
19780;SDS011;10050;55.492;13.506;2022-12-10T07:26:13;10.27;;;6.90;;
19780;SDS011;10050;55.492;13.506;2022-12-10T07:28:38;14.93;;;8.10;;
19780;SDS011;10050;55.492;13.506;2022-12-10T07:31:05;11.30;;;7.67;;
19780;SDS011;10050;55.492;13.506;2022-12-10T07:33:32;11.13;;;6.87;;
19780;SDS011;10050;55.492;13.506;2022-12-10T07:35:58;11.70;;;7.70;;
19780;SDS011;10050;55.492;13.506;2022-12-10T07:38:24;11.10;;;7.50;;
19780;SDS011;10050;55.492;13.506;2022-12-10T07:40:50;12.23;;;7.57;;
19780;SDS011;10050;55.492;13.506;2022-12-10T07:43:16;11.43;;;7.37;;
19780;SDS011;10050;55.492;13.506;2022-12-10T07:45:43;11.30;;;7.13;;
19780;SDS011;10050;55.492;13.506;2022-12-10T07:48:09;12.77;;;7.20;;
19780;SDS011;10050;55.492;13.506;2022-12-10T07:50:34;11.07;;;7.40;;
19780;SDS011;10050;55.492;13.506;2022-12-10T07:53:00;11.47;;;8.10;;
19780;SDS011;10050;55.492;13.506;2022-12-10T07:55:26;12.80;;;7.93;;
19780;SDS011;10050;55.492;13.506;2022-12-10T07:57:51;12.53;;;7.93;;
19780;SDS011;10050;55.492;13.506;2022-12-10T08:00:17;10.43;;;7.10;;
19780;SDS011;10050;55.492;13.506;2022-12-10T08:02:43;11.77;;;6.43;;
19780;SDS011;10050;55.492;13.506;2022-12-10T08:05:09;10.07;;;7.07;;
19780;SDS011;10050;55.492;13.506;2022-12-10T08:07:34;12.10;;;7.63;;
19780;SDS011;10050;55.492;13.506;2022-12-10T08:10:00;12.43;;;7.80;;
19780;SDS011;10050;55.492;13.506;2022-12-10T08:12:26;14.90;;;7.13;;
19780;SDS011;10050;55.492;13.506;2022-12-10T08:14:52;13.53;;;7.93;;
19780;SDS011;10050;55.492;13.506;2022-12-10T08:17:18;14.83;;;8.03;;
19780;SDS011;10050;55.492;13.506;2022-12-10T08:19:43;15.33;;;8.43;;
19780;SDS011;10050;55.492;13.506;2022-12-10T08:22:09;12.73;;;8.37;;
19780;SDS011;10050;55.492;13.506;2022-12-10T08:24:34;14.93;;;8.43;;
19780;SDS011;10050;55.492;13.506;2022-12-10T08:27:00;17.33;;;9.40;;
19780;SDS011;10050;55.492;13.506;2022-12-10T08:29:26;14.57;;;9.30;;
19780;SDS011;10050;55.492;13.506;2022-12-10T08:31:52;16.50;;;8.90;;
19780;SDS011;10050;55.492;13.506;2022-12-10T08:34:18;14.10;;;8.50;;
19780;SDS011;10050;55.492;13.506;2022-12-10T08:36:44;13.80;;;8.23;;
19780;SDS011;10050;55.492;13.506;2022-12-10T08:39:11;14.07;;;8.37;;
19780;SDS011;10050;55.492;13.506;2022-12-10T08:41:40;16.73;;;8.80;;
19780;SDS011;10050;55.492;13.506;2022-12-10T08:44:06;13.00;;;7.57;;
19780;SDS011;10050;55.492;13.506;2022-12-10T08:46:32;12.47;;;8.00;;
19780;SDS011;10050;55.492;13.506;2022-12-10T08:48:57;15.33;;;9.07;;
19780;SDS011;10050;55.492;13.506;2022-12-10T08:51:23;17.10;;;8.73;;
19780;SDS011;10050;55.492;13.506;2022-12-10T08:53:49;18.33;;;9.40;;
19780;SDS011;10050;55.492;13.506;2022-12-10T08:56:15;13.37;;;8.20;;
19780;SDS011;10050;55.492;13.506;2022-12-10T08:58:41;12.57;;;7.90;;
19780;SDS011;10050;55.492;13.506;2022-12-10T09:01:07;13.03;;;8.30;;
19780;SDS011;10050;55.492;13.506;2022-12-10T09:03:35;16.93;;;9.07;;
19780;SDS011;10050;55.492;13.506;2022-12-10T09:06:03;15.83;;;9.27;;
19780;SDS011;10050;55.492;13.506;2022-12-10T09:08:30;16.37;;;8.57;;
19780;SDS011;10050;55.492;13.506;2022-12-10T09:10:55;14.80;;;8.63;;
19780;SDS011;10050;55.492;13.506;2022-12-10T09:13:21;12.67;;;7.50;;
19780;SDS011;10050;55.492;13.506;2022-12-10T09:15:51;15.33;;;9.00;;
19780;SDS011;10050;55.492;13.506;2022-12-10T09:18:17;12.23;;;8.37;;
19780;SDS011;10050;55.492;13.506;2022-12-10T09:20:43;13.40;;;8.47;;
19780;SDS011;10050;55.492;13.506;2022-12-10T09:23:09;12.73;;;8.83;;
19780;SDS011;10050;55.492;13.506;2022-12-10T09:25:35;14.23;;;8.60;;
19780;SDS011;10050;55.492;13.506;2022-12-10T09:28:00;12.67;;;8.73;;
19780;SDS011;10050;55.492;13.506;2022-12-10T09:30:26;14.57;;;9.20;;
19780;SDS011;10050;55.492;13.506;2022-12-10T09:32:52;15.47;;;8.27;;
19780;SDS011;10050;55.492;13.506;2022-12-10T09:35:17;12.13;;;7.63;;
19780;SDS011;10050;55.492;13.506;2022-12-10T09:37:43;14.83;;;8.70;;
19780;SDS011;10050;55.492;13.506;2022-12-10T09:40:10;13.47;;;8.77;;
19780;SDS011;10050;55.492;13.506;2022-12-10T09:42:43;15.03;;;9.00;;
19780;SDS011;10050;55.492;13.506;2022-12-10T09:47:59;12.00;;;8.37;;
19780;SDS011;10050;55.492;13.506;2022-12-10T09:50:28;13.53;;;7.97;;
19780;SDS011;10050;55.492;13.506;2022-12-10T09:53:11;12.90;;;8.20;;
19780;SDS011;10050;55.492;13.506;2022-12-10T09:55:42;15.47;;;9.43;;
19780;SDS011;10050;55.492;13.506;2022-12-10T09:58:13;14.77;;;9.23;;
19780;SDS011;10050;55.492;13.506;2022-12-10T10:00:46;15.73;;;8.63;;
19780;SDS011;10050;55.492;13.506;2022-12-10T10:03:16;13.27;;;7.80;;
19780;SDS011;10050;55.492;13.506;2022-12-10T10:05:49;13.93;;;8.70;;
19780;SDS011;10050;55.492;13.506;2022-12-10T10:08:22;13.67;;;8.60;;
19780;SDS011;10050;55.492;13.506;2022-12-10T10:11:20;13.50;;;9.63;;
19780;SDS011;10050;55.492;13.506;2022-12-10T10:13:53;13.73;;;9.00;;
19780;SDS011;10050;55.492;13.506;2022-12-10T10:18:55;14.50;;;8.93;;
19780;SDS011;10050;55.492;13.506;2022-12-10T10:21:25;14.67;;;8.90;;
19780;SDS011;10050;55.492;13.506;2022-12-10T10:23:53;12.47;;;7.70;;
19780;SDS011;10050;55.492;13.506;2022-12-10T10:26:20;12.57;;;8.70;;
19780;SDS011;10050;55.492;13.506;2022-12-10T10:28:48;13.17;;;8.10;;
19780;SDS011;10050;55.492;13.506;2022-12-10T10:31:24;16.90;;;9.93;;
19780;SDS011;10050;55.492;13.506;2022-12-10T10:33:53;17.50;;;10.83;;
19780;SDS011;10050;55.492;13.506;2022-12-10T10:36:25;16.33;;;10.53;;
19780;SDS011;10050;55.492;13.506;2022-12-10T10:38:53;15.63;;;10.03;;
19780;SDS011;10050;55.492;13.506;2022-12-10T10:41:19;17.00;;;9.33;;
19780;SDS011;10050;55.492;13.506;2022-12-10T10:43:45;13.53;;;8.17;;
19780;SDS011;10050;55.492;13.506;2022-12-10T10:46:16;15.33;;;7.87;;
19780;SDS011;10050;55.492;13.506;2022-12-10T10:48:46;14.17;;;8.40;;
19780;SDS011;10050;55.492;13.506;2022-12-10T10:53:41;13.37;;;8.93;;
19780;SDS011;10050;55.492;13.506;2022-12-10T10:56:15;15.27;;;9.57;;
19780;SDS011;10050;55.492;13.506;2022-12-10T10:59:04;13.23;;;9.30;;
19780;SDS011;10050;55.492;13.506;2022-12-10T11:04:24;15.17;;;9.27;;
19780;SDS011;10050;55.492;13.506;2022-12-10T11:06:56;17.10;;;9.13;;
19780;SDS011;10050;55.492;13.506;2022-12-10T11:09:29;12.93;;;8.67;;
19780;SDS011;10050;55.492;13.506;2022-12-10T11:11:58;11.13;;;7.80;;
19780;SDS011;10050;55.492;13.506;2022-12-10T11:14:29;10.17;;;7.27;;
19780;SDS011;10050;55.492;13.506;2022-12-10T11:19:35;12.27;;;8.07;;
19780;SDS011;10050;55.492;13.506;2022-12-10T11:22:16;13.07;;;8.40;;
19780;SDS011;10050;55.492;13.506;2022-12-10T11:24:49;15.40;;;9.50;;
19780;SDS011;10050;55.492;13.506;2022-12-10T11:27:18;17.20;;;8.47;;
19780;SDS011;10050;55.492;13.506;2022-12-10T11:30:09;15.33;;;9.47;;
19780;SDS011;10050;55.492;13.506;2022-12-10T11:41:01;12.90;;;8.60;;
19780;SDS011;10050;55.492;13.506;2022-12-10T11:46:50;16.47;;;9.70;;
19780;SDS011;10050;55.492;13.506;2022-12-10T11:49:40;15.93;;;9.97;;
19780;SDS011;10050;55.492;13.506;2022-12-10T11:58:31;18.50;;;9.83;;
19780;SDS011;10050;55.492;13.506;2022-12-10T12:01:17;13.83;;;9.50;;
19780;SDS011;10050;55.492;13.506;2022-12-10T12:03:55;18.20;;;10.23;;
19780;SDS011;10050;55.492;13.506;2022-12-10T12:15:03;14.33;;;9.60;;
19780;SDS011;10050;55.492;13.506;2022-12-10T12:17:43;17.23;;;9.43;;
19780;SDS011;10050;55.492;13.506;2022-12-10T12:20:18;13.50;;;8.73;;
19780;SDS011;10050;55.492;13.506;2022-12-10T12:22:54;16.27;;;9.47;;
19780;SDS011;10050;55.492;13.506;2022-12-10T12:25:29;14.20;;;9.50;;
19780;SDS011;10050;55.492;13.506;2022-12-10T12:28:02;13.73;;;9.77;;
19780;SDS011;10050;55.492;13.506;2022-12-10T12:30:34;13.73;;;9.27;;
19780;SDS011;10050;55.492;13.506;2022-12-10T12:33:38;16.03;;;9.23;;
19780;SDS011;10050;55.492;13.506;2022-12-10T12:36:14;13.87;;;9.40;;
19780;SDS011;10050;55.492;13.506;2022-12-10T12:44:15;17.00;;;10.33;;
19780;SDS011;10050;55.492;13.506;2022-12-10T12:46:44;14.37;;;9.63;;
19780;SDS011;10050;55.492;13.506;2022-12-10T12:54:46;15.60;;;10.43;;
19780;SDS011;10050;55.492;13.506;2022-12-10T12:57:19;17.03;;;10.87;;
19780;SDS011;10050;55.492;13.506;2022-12-10T13:00:08;18.30;;;11.20;;
19780;SDS011;10050;55.492;13.506;2022-12-10T13:05:43;19.90;;;11.77;;
19780;SDS011;10050;55.492;13.506;2022-12-10T13:10:45;24.50;;;13.63;;
19780;SDS011;10050;55.492;13.506;2022-12-10T13:13:23;15.93;;;10.00;;
19780;SDS011;10050;55.492;13.506;2022-12-10T13:15:53;17.27;;;11.13;;
19780;SDS011;10050;55.492;13.506;2022-12-10T13:18:24;16.57;;;10.47;;
19780;SDS011;10050;55.492;13.506;2022-12-10T13:23:49;13.37;;;9.00;;
19780;SDS011;10050;55.492;13.506;2022-12-10T13:26:26;17.10;;;10.10;;
19780;SDS011;10050;55.492;13.506;2022-12-10T13:28:55;17.17;;;10.03;;
19780;SDS011;10050;55.492;13.506;2022-12-10T13:31:36;14.40;;;9.20;;
19780;SDS011;10050;55.492;13.506;2022-12-10T13:36:37;15.47;;;9.63;;
19780;SDS011;10050;55.492;13.506;2022-12-10T13:39:46;13.20;;;8.67;;
19780;SDS011;10050;55.492;13.506;2022-12-10T13:42:26;14.13;;;8.03;;
19780;SDS011;10050;55.492;13.506;2022-12-10T13:53:39;13.70;;;8.57;;
19780;SDS011;10050;55.492;13.506;2022-12-10T13:56:32;13.00;;;8.47;;
19780;SDS011;10050;55.492;13.506;2022-12-10T13:59:17;12.57;;;8.57;;
19780;SDS011;10050;55.492;13.506;2022-12-10T14:08:06;14.30;;;9.13;;
19780;SDS011;10050;55.492;13.506;2022-12-10T14:10:38;14.27;;;8.33;;
19780;SDS011;10050;55.492;13.506;2022-12-10T14:13:07;17.17;;;8.77;;
19780;SDS011;10050;55.492;13.506;2022-12-10T14:15:38;21.33;;;9.67;;
19780;SDS011;10050;55.492;13.506;2022-12-10T14:18:11;52.80;;;10.20;;
19780;SDS011;10050;55.492;13.506;2022-12-10T14:20:41;13.47;;;8.77;;
19780;SDS011;10050;55.492;13.506;2022-12-10T14:23:25;39.87;;;9.43;;
19780;SDS011;10050;55.492;13.506;2022-12-10T14:26:06;14.10;;;9.03;;
19780;SDS011;10050;55.492;13.506;2022-12-10T14:28:47;19.80;;;10.67;;
19780;SDS011;10050;55.492;13.506;2022-12-10T14:31:30;21.00;;;11.50;;
19780;SDS011;10050;55.492;13.506;2022-12-10T14:34:17;22.50;;;12.80;;
19780;SDS011;10050;55.492;13.506;2022-12-10T14:36:55;19.37;;;11.13;;
19780;SDS011;10050;55.492;13.506;2022-12-10T14:39:27;15.73;;;10.07;;
19780;SDS011;10050;55.492;13.506;2022-12-10T14:41:55;14.90;;;9.77;;
19780;SDS011;10050;55.492;13.506;2022-12-10T14:44:26;24.10;;;10.27;;
19780;SDS011;10050;55.492;13.506;2022-12-10T14:47:02;21.97;;;10.77;;
19780;SDS011;10050;55.492;13.506;2022-12-10T14:49:30;18.80;;;11.10;;
19780;SDS011;10050;55.492;13.506;2022-12-10T14:51:55;20.03;;;10.53;;
19780;SDS011;10050;55.492;13.506;2022-12-10T14:54:26;16.83;;;9.97;;
19780;SDS011;10050;55.492;13.506;2022-12-10T14:56:54;30.53;;;10.30;;
19780;SDS011;10050;55.492;13.506;2022-12-10T14:59:22;22.57;;;9.43;;
19780;SDS011;10050;55.492;13.506;2022-12-10T15:01:55;14.73;;;9.77;;
19780;SDS011;10050;55.492;13.506;2022-12-10T15:04:23;22.87;;;10.20;;
19780;SDS011;10050;55.492;13.506;2022-12-10T15:06:57;15.87;;;9.67;;
19780;SDS011;10050;55.492;13.506;2022-12-10T15:09:25;19.67;;;8.47;;
19780;SDS011;10050;55.492;13.506;2022-12-10T15:11:58;14.07;;;8.77;;
19780;SDS011;10050;55.492;13.506;2022-12-10T15:14:25;15.50;;;8.20;;
19780;SDS011;10050;55.492;13.506;2022-12-10T15:16:52;17.63;;;9.27;;
19780;SDS011;10050;55.492;13.506;2022-12-10T15:21:46;16.03;;;9.23;;
19780;SDS011;10050;55.492;13.506;2022-12-10T15:26:42;17.50;;;9.07;;
19780;SDS011;10050;55.492;13.506;2022-12-10T15:29:28;19.50;;;9.40;;
19780;SDS011;10050;55.492;13.506;2022-12-10T15:32:08;15.80;;;8.87;;
19780;SDS011;10050;55.492;13.506;2022-12-10T15:34:41;14.00;;;8.83;;
19780;SDS011;10050;55.492;13.506;2022-12-10T15:37:14;18.00;;;9.00;;
19780;SDS011;10050;55.492;13.506;2022-12-10T15:39:51;19.90;;;9.40;;
19780;SDS011;10050;55.492;13.506;2022-12-10T15:42:42;21.47;;;9.73;;
19780;SDS011;10050;55.492;13.506;2022-12-10T15:45:23;13.93;;;8.67;;
19780;SDS011;10050;55.492;13.506;2022-12-10T15:47:51;14.63;;;9.00;;
19780;SDS011;10050;55.492;13.506;2022-12-10T15:50:19;16.60;;;9.60;;
19780;SDS011;10050;55.492;13.506;2022-12-10T15:52:44;19.00;;;10.17;;
19780;SDS011;10050;55.492;13.506;2022-12-10T15:55:11;19.37;;;11.60;;
19780;SDS011;10050;55.492;13.506;2022-12-10T15:57:38;20.77;;;11.40;;
19780;SDS011;10050;55.492;13.506;2022-12-10T16:00:23;17.53;;;10.20;;
19780;SDS011;10050;55.492;13.506;2022-12-10T16:02:53;17.27;;;9.77;;
19780;SDS011;10050;55.492;13.506;2022-12-10T16:07:49;15.57;;;9.17;;
19780;SDS011;10050;55.492;13.506;2022-12-10T16:10:17;14.70;;;9.27;;
19780;SDS011;10050;55.492;13.506;2022-12-10T16:15:30;17.70;;;11.10;;
19780;SDS011;10050;55.492;13.506;2022-12-10T16:18:04;17.17;;;10.33;;
19780;SDS011;10050;55.492;13.506;2022-12-10T16:20:34;15.90;;;9.53;;
19780;SDS011;10050;55.492;13.506;2022-12-10T16:22:59;14.93;;;9.73;;
19780;SDS011;10050;55.492;13.506;2022-12-10T16:25:27;14.73;;;8.57;;
19780;SDS011;10050;55.492;13.506;2022-12-10T16:27:54;16.93;;;9.70;;
19780;SDS011;10050;55.492;13.506;2022-12-10T16:30:21;16.70;;;9.60;;
19780;SDS011;10050;55.492;13.506;2022-12-10T16:32:59;17.70;;;11.00;;